Time;durP1;ratioP1;P1;durP2;ratioP2;P2;SDS_P1;SDS_P2;PMS_P1;PMS_P2;Temp;Humidity;BMP_temperature;BMP_pressure;BME280_temperature;BME280_humidity;BME280_pressure;Samples;Min_cycle;Max_cycle;Signal;HPM_P1;HPM_P2
2021/12/17 00:00:45;;;;;;;36.22;17.33;;;9.10;99.90;;;;;;5032276;28;20078;-71
2021/12/17 00:03:19;;;;;;;40.10;16.83;;;9.10;99.90;;;;;;5033151;28;20390;-72
2021/12/17 00:06:12;;;;;;;40.22;17.60;;;9.10;99.90;;;;;;5033517;28;20463;-71
2021/12/17 00:08:33;;;;;;;34.65;15.98;;;9.10;99.90;;;;;;5033070;28;20030;-71
2021/12/17 00:10:59;;;;;;;37.22;16.90;;;9.00;99.90;;;;;;5033277;28;20104;-72
2021/12/17 00:13:24;;;;;;;38.90;18.48;;;9.00;99.90;;;;;;5032779;28;20104;-73
2021/12/17 00:15:50;;;;;;;35.78;17.02;;;9.00;99.90;;;;;;5030065;28;20422;-73
2021/12/17 00:18:23;;;;;;;35.63;16.35;;;9.10;99.90;;;;;;5031180;28;20022;-73
2021/12/17 00:48:36;;;;;;;36.70;15.85;;;9.10;99.90;;;;;;5033152;28;20032;-73
2021/12/17 00:53:39;;;;;;;35.42;16.98;;;9.10;99.90;;;;;;5032827;28;20021;-70
2021/12/17 00:56:05;;;;;;;38.17;16.67;;;9.00;99.90;;;;;;5031760;28;20033;-71
2021/12/17 00:58:30;;;;;;;40.00;16.70;;;9.00;99.90;;;;;;5033027;28;20340;-72
2021/12/17 01:00:56;;;;;;;33.30;15.23;;;9.00;99.90;;;;;;5035495;28;20021;-71
2021/12/17 01:03:22;;;;;;;38.75;16.75;;;9.00;99.90;;;;;;5036808;28;20104;-72
2021/12/17 01:05:47;;;;;;;42.45;18.58;;;9.00;99.90;;;;;;5036254;28;20032;-72
2021/12/17 01:08:13;;;;;;;41.88;18.65;;;9.00;99.90;;;;;;5036455;28;20025;-70
2021/12/17 01:10:48;;;;;;;39.97;18.05;;;9.00;99.90;;;;;;5036258;28;20025;-71
2021/12/17 01:13:14;;;;;;;32.95;15.38;;;9.00;99.90;;;;;;5036557;28;20017;-72
2021/12/17 01:15:42;;;;;;;36.83;16.30;;;8.90;99.90;;;;;;5036443;28;20101;-72
2021/12/17 01:18:13;;;;;;;37.40;16.05;;;8.90;99.90;;;;;;5037343;28;20142;-72
2021/12/17 01:36:54;;;;;;;29.05;14.18;;;8.80;99.90;;;;;;5035671;28;20083;-71
2021/12/17 01:42:07;;;;;;;30.83;13.95;;;8.80;99.90;;;;;;5036784;28;20113;-71
2021/12/17 01:44:34;;;;;;;36.03;15.15;;;8.70;99.90;;;;;;5036122;28;20047;-71
2021/12/17 01:47:02;;;;;;;40.15;16.02;;;8.70;99.90;;;;;;5035052;28;20083;-72
2021/12/17 02:00:25;;;;;;;35.45;13.50;;;8.70;99.90;;;;;;5035423;28;20056;-71
2021/12/17 02:02:54;;;;;;;31.13;13.93;;;8.70;99.90;;;;;;5035483;28;20095;-71
2021/12/17 02:05:19;;;;;;;33.50;15.02;;;8.70;99.90;;;;;;5050425;28;20049;-71
2021/12/17 02:07:48;;;;;;;31.88;14.00;;;8.70;99.90;;;;;;5034961;28;20021;-70
2021/12/17 02:19:41;;;;;;;32.08;13.98;;;8.70;99.90;;;;;;5034317;28;20025;-71
2021/12/17 02:22:02;;;;;;;31.02;12.95;;;8.70;99.90;;;;;;5035954;28;20186;-72
2021/12/17 02:32:14;;;;;;;26.48;12.20;;;8.70;99.90;;;;;;5034508;28;20036;-73
2021/12/17 02:37:26;;;;;;;23.80;11.85;;;8.60;99.90;;;;;;5035123;28;20121;-72
2021/12/17 02:47:31;;;;;;;20.33;8.20;;;8.60;99.90;;;;;;5034554;28;20047;-73
2021/12/17 02:49:58;;;;;;;16.20;8.13;;;8.60;99.90;;;;;;5034527;28;20059;-73
2021/12/17 02:52:28;;;;;;;17.77;8.20;;;8.50;99.90;;;;;;5034024;28;20096;-73
2021/12/17 02:54:55;;;;;;;15.70;6.97;;;8.50;99.90;;;;;;5033821;28;20109;-73
2021/12/17 02:57:21;;;;;;;12.68;6.07;;;8.50;99.90;;;;;;5034076;28;20029;-73
2021/12/17 02:59:46;;;;;;;12.00;6.35;;;8.50;99.90;;;;;;5033930;28;20349;-73
2021/12/17 03:02:12;;;;;;;12.30;6.40;;;8.50;99.90;;;;;;5033722;28;20017;-73
2021/12/17 03:04:41;;;;;;;10.57;6.18;;;8.50;99.90;;;;;;5032354;28;20060;-73
2021/12/17 03:07:12;;;;;;;10.32;4.82;;;8.50;99.90;;;;;;5033702;28;20036;-72
2021/12/17 03:10:02;;;;;;;11.03;5.10;;;8.50;99.90;;;;;;5049798;28;20025;-72
2021/12/17 03:12:42;;;;;;;9.73;4.60;;;8.40;99.90;;;;;;5032613;28;20029;-72
2021/12/17 03:15:20;;;;;;;7.82;5.00;;;8.40;99.90;;;;;;5032209;28;20274;-71
2021/12/17 03:26:02;;;;;;;14.75;5.18;;;8.40;99.90;;;;;;5055736;28;20033;-72
2021/12/17 03:28:31;;;;;;;15.25;7.15;;;8.40;99.90;;;;;;5040879;28;20041;-74
2021/12/17 03:30:57;;;;;;;13.52;6.18;;;8.30;99.90;;;;;;5036099;28;20028;-72
2021/12/17 03:33:23;;;;;;;13.82;6.15;;;8.40;99.90;;;;;;5036748;28;20037;-72
2021/12/17 03:35:50;;;;;;;10.20;5.80;;;8.40;99.90;;;;;;5034259;28;20439;-72
2021/12/17 03:38:16;;;;;;;9.65;5.43;;;8.30;99.90;;;;;;5032887;28;20025;-72
2021/12/17 03:40:43;;;;;;;12.32;5.30;;;8.20;99.90;;;;;;5033795;28;20109;-71
2021/12/17 03:43:13;;;;;;;9.80;4.55;;;8.20;99.90;;;;;;5033953;28;20021;-72
2021/12/17 03:45:41;;;;;;;9.65;3.95;;;8.20;99.90;;;;;;5033276;28;20033;-72
2021/12/17 03:48:07;;;;;;;9.10;3.50;;;8.30;99.90;;;;;;5034207;28;20025;-72
2021/12/17 03:50:35;;;;;;;7.10;3.05;;;8.30;99.90;;;;;;5033201;28;20030;-71
2021/12/17 03:53:01;;;;;;;7.28;3.45;;;8.30;99.90;;;;;;5033130;28;20028;-72
2021/12/17 03:55:27;;;;;;;4.75;2.80;;;8.30;99.90;;;;;;5048081;28;20116;-72
2021/12/17 03:57:52;;;;;;;6.93;3.28;;;8.30;99.90;;;;;;5033034;28;20104;-72
2021/12/17 04:00:18;;;;;;;7.05;3.20;;;8.30;99.90;;;;;;5032604;28;20455;-71
2021/12/17 04:02:45;;;;;;;7.38;3.00;;;8.30;99.90;;;;;;5032607;28;20033;-71
2021/12/17 04:05:10;;;;;;;6.90;3.22;;;8.30;99.90;;;;;;5033015;28;20043;-70
2021/12/17 04:07:36;;;;;;;5.30;3.50;;;8.30;99.90;;;;;;5032959;28;20080;-72
2021/12/17 04:10:02;;;;;;;6.03;3.13;;;8.30;99.90;;;;;;5032980;28;20391;-72
2021/12/17 04:12:43;;;;;;;6.50;3.10;;;8.30;99.90;;;;;;5032598;28;20071;-71
2021/12/17 04:15:09;;;;;;;5.75;3.10;;;8.30;99.90;;;;;;5032795;28;20021;-71
2021/12/17 04:17:42;;;;;;;5.10;2.58;;;8.30;99.90;;;;;;5032705;28;20363;-71
2021/12/17 04:20:08;;;;;;;7.97;3.22;;;8.30;99.90;;;;;;5032767;28;20471;-73
2021/12/17 04:22:34;;;;;;;6.10;3.63;;;8.20;99.90;;;;;;5033096;28;20029;-72
2021/12/17 04:24:59;;;;;;;6.63;3.78;;;8.20;99.90;;;;;;5032786;28;20036;-72
2021/12/17 04:27:25;;;;;;;6.57;3.85;;;8.20;99.90;;;;;;5032915;28;20021;-72
2021/12/17 04:29:52;;;;;;;8.70;4.63;;;8.20;99.90;;;;;;5031818;28;20129;-72
2021/12/17 04:32:18;;;;;;;7.15;4.00;;;8.20;99.90;;;;;;5033041;28;20117;-72
2021/12/17 04:34:43;;;;;;;8.02;4.80;;;8.20;99.90;;;;;;5032093;28;20033;-72
2021/12/17 04:37:09;;;;;;;10.82;4.65;;;8.20;99.90;;;;;;5032514;28;20029;-70
2021/12/17 04:39:35;;;;;;;7.05;4.20;;;8.20;99.90;;;;;;5032561;28;20029;-72
2021/12/17 04:42:11;;;;;;;9.50;4.55;;;8.20;99.90;;;;;;5032856;28;20022;-72
2021/12/17 04:44:41;;;;;;;10.07;4.72;;;8.20;99.90;;;;;;5031309;28;20029;-72
2021/12/17 04:57:53;;;;;;;8.80;5.13;;;8.20;99.90;;;;;;5032853;28;20029;-72
2021/12/17 05:00:30;;;;;;;9.98;4.82;;;8.20;99.90;;;;;;5032615;28;20029;-72
2021/12/17 05:02:58;;;;;;;9.57;4.78;;;8.20;99.90;;;;;;5031254;28;20022;-72
2021/12/17 05:05:29;;;;;;;10.60;5.50;;;8.20;99.90;;;;;;5035103;28;20018;-72
2021/12/17 05:08:01;;;;;;;11.77;4.97;;;8.20;99.90;;;;;;5032278;28;20132;-71
2021/12/17 05:10:50;;;;;;;8.35;4.20;;;8.20;99.90;;;;;;5032814;28;20033;-72
2021/12/17 05:18:58;;;;;;;10.15;4.93;;;8.20;99.90;;;;;;5032328;28;20079;-72
2021/12/17 05:21:25;;;;;;;9.48;4.85;;;8.10;99.90;;;;;;5031964;28;20022;-72
2021/12/17 05:23:52;;;;;;;6.72;3.22;;;8.20;99.90;;;;;;5031686;28;20071;-72
2021/12/17 05:26:19;;;;;;;7.63;3.67;;;8.20;99.90;;;;;;5063716;22;20620;-72
2021/12/17 05:28:46;;;;;;;7.95;3.40;;;8.20;99.90;;;;;;5039496;28;20032;-72
2021/12/17 05:31:11;;;;;;;6.22;3.53;;;8.20;99.90;;;;;;5039697;28;20026;-72
2021/12/17 05:33:37;;;;;;;7.78;3.70;;;8.10;99.90;;;;;;5039620;28;20021;-72
2021/12/17 05:36:03;;;;;;;7.03;3.58;;;8.20;99.90;;;;;;5041209;28;20038;-72
2021/12/17 05:38:29;;;;;;;10.15;3.42;;;8.20;99.90;;;;;;5018229;28;20037;-71
2021/12/17 05:40:56;;;;;;;8.05;3.83;;;8.10;99.90;;;;;;5034654;28;20037;-71
2021/12/17 05:43:23;;;;;;;7.35;3.95;;;8.10;99.90;;;;;;5034407;28;20021;-70
2021/12/17 05:48:25;;;;;;;8.75;4.38;;;8.20;99.90;;;;;;5038382;28;20025;-70
2021/12/17 05:50:55;;;;;;;8.00;4.13;;;8.20;99.90;;;;;;5039703;28;20502;-70
2021/12/17 05:53:22;;;;;;;10.82;4.43;;;8.20;99.90;;;;;;5021620;28;20529;-70
2021/12/17 05:55:47;;;;;;;10.05;4.68;;;8.10;99.90;;;;;;5038520;28;20108;-71
2021/12/17 05:58:13;;;;;;;11.00;4.80;;;8.20;99.90;;;;;;5039818;28;20451;-71
2021/12/17 06:00:41;;;;;;;7.13;4.15;;;8.20;99.90;;;;;;5040207;28;20081;-71
2021/12/17 06:03:07;;;;;;;9.07;4.22;;;8.10;99.90;;;;;;5043071;28;20036;-69
2021/12/17 06:05:33;;;;;;;11.43;4.53;;;8.20;99.90;;;;;;5041943;28;20037;-68
2021/12/17 06:07:59;;;;;;;10.93;4.57;;;8.10;99.90;;;;;;5040627;28;20022;-70
2021/12/17 06:10:24;;;;;;;11.10;4.35;;;8.10;99.90;;;;;;5039088;28;20085;-70
2021/12/17 06:12:50;;;;;;;11.73;5.55;;;8.10;99.90;;;;;;5040536;28;20112;-69
2021/12/17 06:15:20;;;;;;;11.45;4.45;;;8.10;99.90;;;;;;5040744;28;20111;-70
2021/12/17 06:17:47;;;;;;;11.50;5.88;;;8.10;99.90;;;;;;5021369;28;20156;-69
2021/12/17 06:20:15;;;;;;;12.65;5.55;;;8.10;99.90;;;;;;5038942;28;20033;-68
2021/12/17 06:22:40;;;;;;;11.07;5.72;;;8.20;99.90;;;;;;5037449;28;20101;-69
2021/12/17 06:25:08;;;;;;;13.80;6.80;;;8.20;99.90;;;;;;5037287;28;20069;-67
2021/12/17 06:27:35;;;;;;;16.20;6.80;;;8.30;99.90;;;;;;5040494;28;20112;-69
2021/12/17 06:30:02;;;;;;;18.67;8.88;;;8.30;99.90;;;;;;5039829;28;20026;-70
2021/12/17 06:32:28;;;;;;;17.80;9.00;;;8.30;99.90;;;;;;5039441;28;20018;-69
2021/12/17 06:34:53;;;;;;;21.02;9.68;;;8.30;99.90;;;;;;5038563;28;20441;-71
2021/12/17 06:37:20;;;;;;;14.73;7.97;;;8.30;99.90;;;;;;5040352;28;20036;-70
2021/12/17 06:39:46;;;;;;;19.00;9.65;;;8.30;99.90;;;;;;5039657;28;20111;-69
2021/12/17 06:42:13;;;;;;;29.13;12.95;;;8.30;99.90;;;;;;5020302;28;20025;-70
2021/12/17 06:44:40;;;;;;;28.27;12.85;;;8.30;99.90;;;;;;5038534;28;20071;-69
2021/12/17 06:47:15;;;;;;;26.58;12.43;;;8.30;99.90;;;;;;5037947;28;20025;-69
2021/12/17 06:49:50;;;;;;;28.20;13.60;;;8.40;99.90;;;;;;5038125;28;20025;-70
2021/12/17 07:10:46;;;;;;;19.95;10.00;;;8.50;99.90;;;;;;5037803;28;20025;-70
2021/12/17 07:19:23;;;;;;;17.13;8.35;;;8.60;99.90;;;;;;5038542;28;20121;-70
2021/12/17 07:35:01;;;;;;;20.77;9.70;;;8.50;99.90;;;;;;5040538;28;20034;-70
2021/12/17 07:39:54;;;;;;;18.25;7.85;;;8.50;99.90;;;;;;5038454;28;20055;-70
2021/12/17 07:42:20;;;;;;;21.10;9.77;;;8.50;99.90;;;;;;5036753;28;20021;-71
2021/12/17 07:44:46;;;;;;;22.33;9.73;;;8.50;99.90;;;;;;5036172;28;20079;-72
2021/12/17 07:47:12;;;;;;;18.85;9.38;;;8.50;99.90;;;;;;5017250;28;20505;-71
2021/12/17 07:49:37;;;;;;;21.15;9.23;;;8.50;99.90;;;;;;5035306;28;20040;-72
2021/12/17 07:52:04;;;;;;;20.23;9.15;;;8.50;99.90;;;;;;5036117;28;20033;-71
2021/12/17 07:54:29;;;;;;;18.35;8.95;;;8.50;99.90;;;;;;5035464;28;20029;-71
2021/12/17 07:56:55;;;;;;;22.50;8.90;;;8.60;99.90;;;;;;5034626;28;20033;-71
2021/12/17 07:59:20;;;;;;;18.92;8.48;;;8.60;99.90;;;;;;5035642;28;20049;-71
2021/12/17 08:01:46;;;;;;;15.63;7.82;;;8.60;99.90;;;;;;5035352;28;20051;-70
2021/12/17 08:04:12;;;;;;;23.33;9.60;;;8.60;99.90;;;;;;5015849;28;20025;-72
2021/12/17 08:06:38;;;;;;;20.05;9.23;;;8.70;99.90;;;;;;5035042;28;20041;-71
2021/12/17 08:09:05;;;;;;;18.88;9.10;;;8.60;99.90;;;;;;5034917;28;20395;-71
2021/12/17 08:11:37;;;;;;;18.52;9.15;;;8.60;99.90;;;;;;5020462;28;20454;-70
2021/12/17 08:14:07;;;;;;;19.88;9.75;;;8.70;99.90;;;;;;5036883;28;20087;-71
2021/12/17 08:16:41;;;;;;;24.08;9.57;;;8.70;99.90;;;;;;5036056;28;20029;-71
2021/12/17 08:24:47;;;;;;;20.02;10.02;;;8.70;99.90;;;;;;5036524;28;20169;-71
2021/12/17 08:29:53;;;;;;;22.55;9.70;;;8.70;99.90;;;;;;5036225;28;20033;-71
2021/12/17 08:32:19;;;;;;;17.92;8.55;;;8.70;99.90;;;;;;5035707;28;20021;-71
2021/12/17 08:34:45;;;;;;;18.23;9.45;;;8.80;99.90;;;;;;5035823;28;20486;-71
2021/12/17 08:37:10;;;;;;;21.80;10.10;;;8.80;99.90;;;;;;5035762;28;20040;-71
2021/12/17 08:39:37;;;;;;;18.92;8.77;;;8.80;99.90;;;;;;5034724;28;20475;-70
2021/12/17 08:42:03;;;;;;;18.55;9.57;;;8.80;99.90;;;;;;5035719;28;20040;-71
2021/12/17 08:44:29;;;;;;;19.17;9.20;;;8.80;99.90;;;;;;5035506;28;20144;-71
2021/12/17 08:46:54;;;;;;;19.42;8.77;;;8.80;99.90;;;;;;5035922;28;20067;-72
2021/12/17 08:49:20;;;;;;;19.95;9.73;;;8.80;99.90;;;;;;5016751;28;20025;-71
2021/12/17 08:51:46;;;;;;;19.05;9.10;;;8.90;99.90;;;;;;5034973;28;20029;-72
2021/12/17 08:54:12;;;;;;;16.98;8.82;;;8.90;99.90;;;;;;5034817;28;20032;-71
2021/12/17 08:56:43;;;;;;;21.02;9.68;;;9.00;99.90;;;;;;5034952;28;20029;-71
2021/12/17 08:59:09;;;;;;;;;;;9.00;99.90;;;;;;5035309;28;20025;-71
2021/12/17 09:01:34;;;;;;;19.05;9.18;;;9.00;99.90;;;;;;5034960;28;19999;-71
2021/12/17 09:04:01;;;;;;;14.80;8.52;;;9.00;99.90;;;;;;5016658;28;20410;-72
2021/12/17 09:06:28;;;;;;;15.73;8.38;;;9.10;99.90;;;;;;5034539;28;20239;-71
2021/12/17 09:08:54;;;;;;;19.98;9.45;;;9.10;99.90;;;;;;5034472;28;20026;-71
2021/12/17 09:11:24;;;;;;;16.63;9.18;;;9.10;99.90;;;;;;5034789;28;20033;-71
2021/12/17 09:13:51;;;;;;;19.13;8.88;;;9.20;99.90;;;;;;5035147;28;20028;-71
2021/12/17 09:16:20;;;;;;;18.70;10.07;;;9.20;99.90;;;;;;5036120;28;20033;-71
2021/12/17 09:18:47;;;;;;;18.55;9.88;;;9.20;99.90;;;;;;5017368;28;20445;-71
2021/12/17 09:21:12;;;;;;;16.70;9.05;;;9.20;99.90;;;;;;5036380;28;20021;-70
2021/12/17 09:23:39;;;;;;;18.67;9.02;;;9.30;99.90;;;;;;5038923;28;20112;-71
2021/12/17 09:26:04;;;;;;;12.25;7.50;;;9.30;99.90;;;;;;5038555;28;20041;-71
2021/12/17 09:28:31;;;;;;;17.73;8.30;;;9.20;99.90;;;;;;5038610;28;20025;-71
2021/12/17 09:30:58;;;;;;;14.77;8.27;;;9.10;99.90;;;;;;5038935;28;20379;-72
2021/12/17 09:33:25;;;;;;;14.65;8.88;;;9.20;99.90;;;;;;5038222;28;20096;-71
2021/12/17 09:35:51;;;;;;;20.58;10.07;;;9.10;99.90;;;;;;5038642;28;20022;-71
2021/12/17 09:38:17;;;;;;;18.40;9.38;;;9.10;99.90;;;;;;5020644;28;20080;-70
2021/12/17 09:40:43;;;;;;;16.42;9.30;;;9.10;99.90;;;;;;5039070;28;20026;-71
2021/12/17 09:43:10;;;;;;;15.13;9.00;;;9.10;99.90;;;;;;5039760;28;20029;-71
2021/12/17 09:45:36;;;;;;;18.20;8.23;;;9.10;99.90;;;;;;5021744;28;20132;-71
2021/12/17 09:48:03;;;;;;;14.50;8.55;;;9.00;99.90;;;;;;5040189;28;20021;-72
2021/12/17 09:50:29;;;;;;;15.55;8.48;;;9.00;99.90;;;;;;5039777;28;20029;-71
2021/12/17 09:52:54;;;;;;;14.85;9.48;;;8.90;99.90;;;;;;5041712;28;20083;-71
2021/12/17 09:55:21;;;;;;;14.95;8.65;;;8.90;99.90;;;;;;5020150;28;20021;-71
2021/12/17 09:57:46;;;;;;;17.40;9.48;;;8.90;99.90;;;;;;5020381;28;20053;-71
2021/12/17 10:00:17;;;;;;;15.65;8.95;;;8.90;99.90;;;;;;5038589;28;20041;-71
2021/12/17 10:02:44;;;;;;;17.73;9.75;;;8.90;99.90;;;;;;5038391;28;20025;-70
2021/12/17 10:05:13;;;;;;;18.73;9.63;;;8.90;99.90;;;;;;5037941;28;20026;-71
2021/12/17 10:07:41;;;;;;;19.52;9.55;;;8.90;99.90;;;;;;5037804;28;20021;-71
2021/12/17 10:10:07;;;;;;;15.30;8.93;;;8.90;99.90;;;;;;5037538;28;20021;-70
2021/12/17 10:12:36;;;;;;;18.50;8.80;;;8.90;99.90;;;;;;5038963;28;20049;-68
2021/12/17 10:15:17;;;;;;;17.52;9.02;;;8.90;99.90;;;;;;5023944;28;20424;-70
2021/12/17 10:18:00;;;;;;;14.88;8.05;;;8.90;99.90;;;;;;5038283;28;20085;-71
2021/12/17 10:20:27;;;;;;;17.33;9.93;;;8.70;99.90;;;;;;5042914;28;20072;-71
2021/12/17 10:23:04;;;;;;;16.65;10.57;;;8.80;99.90;;;;;;5036619;28;20112;-70
2021/12/17 10:25:32;;;;;;;19.17;8.95;;;8.70;99.90;;;;;;5019214;28;20033;-71
2021/12/17 10:28:03;;;;;;;16.48;8.70;;;8.70;99.90;;;;;;5037182;28;20406;-71
2021/12/17 10:30:30;;;;;;;14.70;7.82;;;8.70;99.90;;;;;;5038510;28;20029;-71
2021/12/17 10:32:59;;;;;;;15.48;8.70;;;8.70;99.90;;;;;;5019564;28;20498;-70
2021/12/17 10:35:31;;;;;;;14.60;7.95;;;8.70;99.90;;;;;;5039329;28;20036;-71
2021/12/17 10:38:04;;;;;;;15.52;7.28;;;8.80;99.90;;;;;;5042118;28;20085;-70
2021/12/17 10:40:42;;;;;;;16.77;8.00;;;8.80;99.90;;;;;;5025527;28;20030;-72
2021/12/17 10:43:24;;;;;;;11.68;7.38;;;8.80;99.90;;;;;;5044179;28;20037;-70
2021/12/17 10:46:00;;;;;;;;;;;8.80;99.90;;;;;;5044336;28;20018;-68
2021/12/17 10:51:13;;;;;;;10.70;5.88;;;8.70;99.90;;;;;;5039632;28;20083;-69
2021/12/17 10:53:45;;;;;;;10.68;6.85;;;8.70;99.90;;;;;;5038233;28;20021;-69
2021/12/17 10:56:15;;;;;;;9.13;5.05;;;8.60;99.90;;;;;;5036842;28;20081;-70
2021/12/17 10:58:52;;;;;;;6.75;4.28;;;8.70;99.90;;;;;;5018524;28;20157;-69
2021/12/17 11:01:27;;;;;;;5.30;3.58;;;8.70;99.90;;;;;;5018637;28;20025;-70
2021/12/17 11:04:06;;;;;;;5.25;3.88;;;8.60;99.90;;;;;;5036455;28;20474;-70
2021/12/17 11:06:49;;;;;;;7.05;3.33;;;8.70;99.90;;;;;;5036332;28;20106;-69
2021/12/17 11:09:34;;;;;;;5.25;3.83;;;8.70;99.90;;;;;;5036057;28;20025;-69
2021/12/17 11:12:21;;;;;;;7.07;4.55;;;8.80;99.90;;;;;;5035936;28;20047;-69
2021/12/17 11:14:47;;;;;;;6.18;4.40;;;8.80;99.90;;;;;;5022402;28;20499;-69
2021/12/17 11:17:15;;;;;;;6.53;4.50;;;8.70;99.90;;;;;;5019019;28;20120;-69
2021/12/17 11:19:42;;;;;;;8.07;3.83;;;8.60;99.90;;;;;;5035720;28;20377;-69
2021/12/17 11:22:08;;;;;;;11.38;5.32;;;8.70;99.90;;;;;;5018470;28;20026;-68
2021/12/17 11:24:35;;;;;;;8.05;5.30;;;8.70;99.90;;;;;;5035233;28;20035;-70
2021/12/17 11:27:06;;;;;;;9.50;5.80;;;8.70;99.90;;;;;;5035961;28;20039;-70
2021/12/17 11:29:32;;;;;;;;;;;8.60;99.90;;;;;;5036143;28;20560;-70
2021/12/17 11:32:03;;;;;;;9.88;6.30;;;8.60;99.90;;;;;;5036735;28;19905;-69
2021/12/17 11:34:30;;;;;;;11.13;6.43;;;8.70;99.90;;;;;;5037000;28;20026;-69
2021/12/17 11:36:58;;;;;;;13.07;7.50;;;8.70;99.90;;;;;;5035818;28;20386;-70
2021/12/17 11:39:28;;;;;;;9.43;6.13;;;8.80;99.90;;;;;;5017352;28;20505;-69
2021/12/17 11:42:29;;;;;;;14.88;6.88;;;8.80;99.90;;;;;;5036779;28;20410;-69
2021/12/17 11:47:46;;;;;;;9.85;5.63;;;8.80;99.90;;;;;;5035411;28;20549;-69
2021/12/17 11:50:16;;;;;;;14.05;6.75;;;8.80;99.90;;;;;;5035191;28;20025;-69
2021/12/17 11:52:50;;;;;;;11.57;5.72;;;8.80;99.90;;;;;;5035505;28;20026;-69
2021/12/17 11:55:33;;;;;;;10.65;5.88;;;8.90;99.90;;;;;;5035583;28;20021;-70
2021/12/17 11:58:08;;;;;;;12.57;5.80;;;8.90;99.90;;;;;;5034955;28;20029;-69
2021/12/17 12:00:45;;;;;;;7.65;5.15;;;8.90;99.90;;;;;;5035795;28;20030;-69
2021/12/17 12:03:20;;;;;;;10.80;5.22;;;8.90;99.90;;;;;;5036117;28;20030;-69
2021/12/17 12:05:49;;;;;;;16.48;7.18;;;8.90;99.90;;;;;;5035015;28;20137;-71
2021/12/17 12:08:25;;;;;;;9.50;5.28;;;9.00;99.90;;;;;;5034773;28;20053;-70
2021/12/17 12:11:09;;;;;;;9.95;5.82;;;9.00;99.90;;;;;;5034923;28;20022;-70
2021/12/17 12:13:38;;;;;;;13.27;4.47;;;9.00;99.90;;;;;;5035883;28;20028;-70
2021/12/17 12:16:10;;;;;;;7.63;4.43;;;9.00;99.90;;;;;;5035929;28;20075;-70
2021/12/17 12:18:41;;;;;;;12.30;5.32;;;9.00;99.90;;;;;;5036083;28;20072;-70
2021/12/17 12:21:07;;;;;;;9.38;4.63;;;9.00;99.90;;;;;;5017734;28;20041;-70
2021/12/17 12:23:32;;;;;;;9.13;4.90;;;9.00;99.90;;;;;;5035219;28;20026;-70
2021/12/17 12:26:01;;;;;;;9.43;4.72;;;9.00;99.90;;;;;;5017455;28;20044;-70
2021/12/17 12:28:45;;;;;;;11.15;4.72;;;9.00;99.90;;;;;;5036171;28;20022;-71
2021/12/17 12:31:20;;;;;;;8.38;4.68;;;9.00;99.90;;;;;;5035452;28;20024;-70
2021/12/17 12:36:45;;;;;;;13.48;5.10;;;9.10;99.90;;;;;;5034831;28;20061;-69
2021/12/17 12:39:37;;;;;;;9.32;5.00;;;9.10;99.90;;;;;;5034572;28;20041;-70
2021/12/17 12:42:31;;;;;;;10.70;5.50;;;9.10;99.90;;;;;;5034550;28;20025;-69
2021/12/17 12:44:57;;;;;;;9.50;5.00;;;9.10;99.90;;;;;;5034532;28;20044;-70
2021/12/17 12:47:31;;;;;;;8.35;5.20;;;9.10;99.90;;;;;;5035467;28;20479;-70
2021/12/17 12:50:11;;;;;;;12.82;6.47;;;9.20;99.90;;;;;;5035721;28;20021;-71
2021/12/17 12:52:50;;;;;;;12.13;6.25;;;9.10;99.90;;;;;;5020378;28;20427;-69
2021/12/17 12:55:43;;;;;;;11.43;5.40;;;9.10;99.90;;;;;;5041339;28;20037;-70
2021/12/17 12:58:15;;;;;;;10.68;5.47;;;9.20;99.90;;;;;;5049227;28;20381;-71
2021/12/17 13:00:52;;;;;;;12.57;6.53;;;9.20;99.90;;;;;;5044526;28;20021;-70
2021/12/17 13:03:29;;;;;;;10.02;6.00;;;9.30;99.90;;;;;;5040264;28;20398;-70
2021/12/17 13:05:56;;;;;;;15.25;6.85;;;9.30;99.90;;;;;;5037756;28;20028;-70
2021/12/17 13:08:23;;;;;;;13.80;6.60;;;9.30;99.90;;;;;;5037302;28;20026;-70
2021/12/17 13:10:55;;;;;;;15.82;7.15;;;9.30;99.90;;;;;;5037423;28;20406;-70
2021/12/17 13:21:31;;;;;;;11.90;7.45;;;9.40;99.90;;;;;;5037356;28;20038;-71
2021/12/17 13:24:23;;;;;;;11.55;6.15;;;9.40;99.90;;;;;;5037174;28;20027;-71
2021/12/17 13:26:54;;;;;;;15.82;7.30;;;9.40;99.90;;;;;;5037316;28;20041;-71
2021/12/17 13:29:23;;;;;;;;;;;9.40;99.90;;;;;;5037882;28;20463;-72
2021/12/17 13:31:56;;;;;;;10.30;6.30;;;9.40;99.90;;;;;;5036966;28;20351;-71
2021/12/17 13:34:31;;;;;;;12.70;5.40;;;9.30;99.90;;;;;;5037129;28;20026;-71
2021/12/17 13:37:07;;;;;;;13.77;6.57;;;9.30;99.90;;;;;;5036456;28;20056;-71
2021/12/17 13:39:43;;;;;;;15.05;6.75;;;9.30;99.90;;;;;;5036759;28;20033;-70
2021/12/17 13:42:23;;;;;;;10.40;6.40;;;9.30;99.90;;;;;;5037744;28;20021;-70
2021/12/17 13:44:55;;;;;;;11.60;6.28;;;9.20;99.90;;;;;;5037508;28;20025;-70
2021/12/17 13:47:30;;;;;;;11.43;6.00;;;9.20;99.90;;;;;;5037180;28;20030;-69
2021/12/17 13:50:01;;;;;;;16.13;6.82;;;9.20;99.90;;;;;;5018754;28;20029;-69
2021/12/17 13:52:31;;;;;;;8.57;5.97;;;9.20;99.90;;;;;;5036362;28;20034;-70
2021/12/17 13:54:59;;;;;;;10.15;6.45;;;9.20;99.90;;;;;;5036701;28;20148;-70
2021/12/17 13:57:27;;;;;;;6.18;4.53;;;9.20;99.90;;;;;;5018887;28;20056;-70
2021/12/17 14:00:04;;;;;;;9.02;4.90;;;9.30;99.90;;;;;;5037657;28;20040;-70
2021/12/17 14:02:34;;;;;;;8.07;2.88;;;9.20;99.90;;;;;;5037854;28;20022;-71
2021/12/17 14:05:09;;;;;;;7.32;2.92;;;9.30;99.90;;;;;;5037175;28;20022;-70
2021/12/17 14:07:36;;;;;;;4.18;2.88;;;9.30;99.90;;;;;;5036699;28;20410;-70
2021/12/17 14:10:05;;;;;;;3.63;2.47;;;9.30;99.90;;;;;;5038459;28;20033;-69
2021/12/17 14:12:33;;;;;;;5.25;2.78;;;9.30;99.90;;;;;;5037543;28;20124;-71
2021/12/17 14:15:01;;;;;;;3.35;2.33;;;9.30;99.90;;;;;;5037202;28;20018;-70
2021/12/17 14:17:55;;;;;;;6.25;3.17;;;9.30;99.90;;;;;;5037651;28;20033;-71
2021/12/17 14:20:24;;;;;;;7.28;2.75;;;9.30;99.90;;;;;;5035119;28;20445;-70
2021/12/17 14:22:52;;;;;;;4.45;2.55;;;9.30;99.90;;;;;;5038786;28;20022;-70
2021/12/17 14:25:35;;;;;;;6.82;3.65;;;9.30;99.90;;;;;;5038257;28;20045;-71
2021/12/17 14:28:09;;;;;;;7.43;2.72;;;9.30;99.90;;;;;;5037913;28;20025;-70
2021/12/17 14:30:35;;;;;;;3.95;2.88;;;9.30;99.90;;;;;;5037496;28;20041;-71
2021/12/17 14:33:10;;;;;;;8.85;3.33;;;9.30;99.90;;;;;;5038218;28;20032;-71
2021/12/17 14:35:44;;;;;;;8.85;4.28;;;9.30;99.90;;;;;;5039567;28;20025;-71
2021/12/17 14:38:11;;;;;;;9.60;4.47;;;9.30;99.90;;;;;;5039070;28;20034;-71
2021/12/17 14:40:43;;;;;;;5.25;3.65;;;9.30;99.90;;;;;;5040022;28;20025;-69
2021/12/17 14:43:28;;;;;;;8.95;5.30;;;9.30;99.90;;;;;;5039842;28;20036;-69
2021/12/17 14:46:02;;;;;;;11.85;5.57;;;9.30;99.90;;;;;;5040510;28;20032;-70
2021/12/17 14:48:41;;;;;;;13.07;6.22;;;9.30;99.90;;;;;;5022194;28;20374;-70
2021/12/17 15:04:47;;;;;;;16.25;8.32;;;9.30;99.90;;;;;;5038167;28;20021;-70
2021/12/17 15:07:13;;;;;;;18.23;10.15;;;9.40;99.90;;;;;;5037686;28;20032;-70
2021/12/17 15:09:43;;;;;;;18.40;9.98;;;9.30;99.90;;;;;;5037451;28;20077;-69
2021/12/17 15:12:36;;;;;;;21.05;10.85;;;9.30;99.90;;;;;;5036700;28;20017;-71
2021/12/17 15:15:19;;;;;;;17.20;10.05;;;9.30;99.90;;;;;;5036849;28;20032;-70
2021/12/17 15:17:46;;;;;;;18.17;9.93;;;9.30;99.90;;;;;;5037775;28;20398;-70
2021/12/17 15:20:14;;;;;;;23.48;11.50;;;9.30;99.90;;;;;;5020713;28;20025;-69
2021/12/17 15:22:40;;;;;;;20.20;10.88;;;9.30;99.90;;;;;;5037918;28;20025;-70
2021/12/17 15:25:08;;;;;;;20.58;10.32;;;9.30;99.90;;;;;;5038291;28;20030;-70
2021/12/17 15:27:35;;;;;;;21.15;11.38;;;9.20;99.90;;;;;;5019864;28;20029;-71
2021/12/17 15:30:05;;;;;;;24.13;11.55;;;9.30;99.90;;;;;;5020280;28;20037;-69
2021/12/17 15:32:31;;;;;;;27.20;12.70;;;9.30;99.90;;;;;;5019147;28;20025;-71
2021/12/17 15:34:57;;;;;;;24.80;13.07;;;9.20;99.90;;;;;;5036435;28;20387;-72
2021/12/17 15:37:22;;;;;;;19.33;11.15;;;9.20;99.90;;;;;;5036082;28;20025;-70
2021/12/17 15:39:48;;;;;;;19.10;10.68;;;9.20;99.90;;;;;;5036311;28;20395;-70
2021/12/17 15:42:14;;;;;;;20.88;10.10;;;9.20;99.90;;;;;;5036235;28;20502;-71
2021/12/17 15:44:39;;;;;;;20.83;10.40;;;9.20;99.90;;;;;;5036110;28;20029;-71
2021/12/17 15:47:06;;;;;;;19.63;10.02;;;9.20;99.90;;;;;;5017505;28;20013;-70
2021/12/17 15:49:32;;;;;;;13.82;8.13;;;9.20;99.90;;;;;;5035384;28;20022;-71
2021/12/17 15:51:58;;;;;;;14.13;7.13;;;9.20;99.90;;;;;;5035386;28;20041;-72
2021/12/17 15:54:23;;;;;;;11.43;6.60;;;9.30;99.90;;;;;;5035642;28;20021;-71
2021/12/17 15:56:49;;;;;;;12.40;7.45;;;9.20;99.90;;;;;;5035881;28;20513;-72
2021/12/17 15:59:15;;;;;;;10.23;6.70;;;9.20;99.90;;;;;;5036161;28;20029;-68
2021/12/17 16:01:41;;;;;;;12.70;6.97;;;9.20;99.90;;;;;;5018133;28;20026;-71
2021/12/17 16:04:07;;;;;;;11.70;6.03;;;9.30;99.90;;;;;;5035768;28;20471;-70
2021/12/17 16:06:33;;;;;;;12.35;6.13;;;9.30;99.90;;;;;;5035234;28;20026;-71
2021/12/17 16:09:01;;;;;;;11.40;6.70;;;9.20;99.90;;;;;;5035208;28;20029;-71
2021/12/17 16:11:51;;;;;;;10.18;6.28;;;9.30;99.90;;;;;;5035626;28;20424;-71
2021/12/17 16:17:59;;;;;;;8.40;5.50;;;9.30;99.90;;;;;;5036436;28;20083;-71